Time;durP1;ratioP1;P1;durP2;ratioP2;P2;SDS_P1;SDS_P2;PMS_P1;PMS_P2;Temp;Humidity;BMP_temperature;BMP_pressure;BME280_temperature;BME280_humidity;BME280_pressure;Samples;Min_cycle;Max_cycle;Signal;HPM_P1;HPM_P2
2022/03/27 00:00:47;;;;;;;29.98;19.65;;;;;;;;;;5075615;28;20389;-67
2022/03/27 00:03:13;;;;;;;31.52;17.98;;;;;;;;;;5075936;28;20098;-66
2022/03/27 00:05:39;;;;;;;33.53;18.40;;;;;;;;;;5075880;28;20021;-66
2022/03/27 00:08:05;;;;;;;28.38;17.38;;;;;;;;;;5075635;28;20036;-65
2022/03/27 00:11:23;;;;;;;28.33;16.90;;;;;;;;;;5075752;28;20033;-66
2022/03/27 00:13:17;;;;;;;30.27;18.67;;;;;;;;;;5075459;28;20036;-65
2022/03/27 00:15:43;;;;;;;31.55;18.55;;;282.30;1484.80;;;;;;5075582;28;20392;-66
2022/03/27 00:18:09;;;;;;;27.27;18.13;;;282.40;1484.80;;;;;;5075381;28;20070;-67
2022/03/27 00:20:35;;;;;;;32.35;18.73;;;;;;;;;;5075577;28;20024;-66
2022/03/27 00:23:01;;;;;;;32.80;18.40;;;;;;;;;;5075257;28;20538;-67
2022/03/27 00:25:27;;;;;;;38.58;19.58;;;;;;;;;;5075071;28;20414;-67
2022/03/27 00:27:53;;;;;;;28.65;16.95;;;;;;;;;;5074193;28;20024;-66
2022/03/27 00:30:19;;;;;;;28.92;18.38;;;;;;;;;;5074140;28;20148;-66
2022/03/27 00:32:45;;;;;;;31.17;17.75;;;;;;;;;;5074113;28;20421;-67
2022/03/27 00:35:12;;;;;;;38.20;17.90;;;;;;;;;;5073932;28;20021;-66
2022/03/27 00:37:37;;;;;;;31.00;18.13;;;282.30;1459.20;;;;;;5073590;28;20037;-66
2022/03/27 00:40:08;;;;;;;28.40;18.02;;;282.30;1459.20;;;;;;5073746;28;20027;-66
2022/03/27 00:42:34;;;;;;;26.73;16.30;;;;;;;;;;5073941;28;20048;-66
2022/03/27 00:44:59;;;;;;;25.20;16.70;;;282.40;1459.20;;;;;;5073107;28;20021;-65
2022/03/27 00:47:25;;;;;;;23.50;16.02;;;282.30;1459.20;;;;;;5073530;28;20036;-64
2022/03/27 00:49:51;;;;;;;25.85;15.57;;;282.20;1459.20;;;;;;5073472;28;20453;-66
2022/03/27 00:52:17;;;;;;;23.90;15.40;;;282.20;1484.80;;;;;;5073664;28;20032;-66
2022/03/27 00:54:43;;;;;;;27.30;16.85;;;;;;;;;;5073292;28;20040;-65
2022/03/27 00:57:09;;;;;;;27.75;17.00;;;;;;;;;;5073418;28;20428;-67
2022/03/27 00:59:35;;;;;;;21.70;14.50;;;;;;;;;;5073444;28;20474;-65
2022/03/27 01:02:01;;;;;;;25.38;14.77;;;;;;;;;;5073502;28;20422;-65
2022/03/27 01:04:28;;;;;;;25.23;14.57;;;;;;;;;;5073255;28;20046;-65
2022/03/27 01:06:55;;;;;;;24.15;14.10;;;;;;;;;;5073303;28;20120;-64
2022/03/27 01:09:36;;;;;;;25.38;14.32;;;;;;;;;;5073366;28;20031;-65
2022/03/27 01:12:23;;;;;;;19.88;13.85;;;;;;;;;;5073546;28;20104;-64
2022/03/27 01:14:53;;;;;;;26.63;14.80;;;;;;;;;;5073121;28;20067;-65
2022/03/27 01:17:30;;;;;;;22.08;14.48;;;;;;;;;;5073019;28;20068;-65
2022/03/27 01:19:56;;;;;;;24.70;15.63;;;;;;;;;;5072987;28;20028;-65
2022/03/27 01:22:23;;;;;;;25.27;16.58;;;;;;;;;;5072891;28;20024;-65
2022/03/27 01:24:50;;;;;;;26.00;16.85;;;;;;;;;;5073084;28;20063;-65
2022/03/27 01:27:33;;;;;;;24.23;14.68;;;;;;;;;;5110493;27;20905;-65
2022/03/27 01:29:59;;;;;;;26.13;16.15;;;;;;;;;;5110609;28;20024;-65
2022/03/27 01:32:25;;;;;;;22.15;15.73;;;;;;;;;;5110427;28;20030;-65
2022/03/27 01:34:51;;;;;;;26.80;13.82;;;;;;;;;;5110458;28;20755;-65
2022/03/27 01:37:17;;;;;;;23.05;14.05;;;;;;;;;;5110366;28;20099;-65
2022/03/27 01:39:44;;;;;;;25.20;14.32;;;;;;;;;;5110362;28;20059;-66
2022/03/27 01:42:10;;;;;;;21.63;13.93;;;;;;;;;;5110351;28;20020;-65
2022/03/27 01:44:36;;;;;;;33.78;18.13;;;;;;;;;;5110377;28;20020;-65
2022/03/27 01:47:03;;;;;;;25.05;15.27;;;;;;;;;;5110073;28;20040;-65
2022/03/27 01:49:29;;;;;;;26.75;15.52;;;;;;;;;;5110126;28;20031;-65
2022/03/27 01:51:55;;;;;;;23.63;15.23;;;;;;;;;;5110281;28;20027;-65
2022/03/27 01:54:22;;;;;;;24.60;15.35;;;;;;;;;;5109617;28;20024;-66
2022/03/27 01:56:48;;;;;;;26.05;14.88;;;;;;;;;;5108461;28;20073;-65
2022/03/27 01:59:15;;;;;;;28.45;15.63;;;;;;;;;;5109760;28;20028;-65
2022/03/27 02:01:41;;;;;;;22.10;15.48;;;;;;;;;;5109746;28;20432;-65
2022/03/27 02:04:07;;;;;;;29.42;14.80;;;;;;;;;;5109313;28;20073;-65
2022/03/27 02:06:37;;;;;;;23.30;14.63;;;;;;;;;;5109554;28;20038;-65
2022/03/27 02:09:03;;;;;;;24.50;14.98;;;;;;;;;;5108228;28;20028;-65
2022/03/27 02:11:29;;;;;;;26.52;14.57;;;;;;;;;;5109323;28;20024;-67
2022/03/27 02:13:55;;;;;;;23.52;13.98;;;;;;;;;;5091415;28;20064;-67
2022/03/27 02:16:21;;;;;;;21.45;14.27;;;;;;;;;;5088321;28;20479;-66
2022/03/27 02:18:47;;;;;;;21.27;14.18;;;;;;;;;;5095720;28;20031;-66
2022/03/27 02:21:13;;;;;;;23.50;14.98;;;;;;;;;;5109939;28;20490;-67
2022/03/27 02:23:39;;;;;;;23.27;13.80;;;;;;;;;;5109901;28;20020;-67
2022/03/27 02:26:06;;;;;;;19.35;12.52;;;;;;;;;;5109464;28;20052;-65
2022/03/27 02:28:32;;;;;;;23.33;12.68;;;;;;;;;;5109820;28;20031;-65
2022/03/27 02:30:59;;;;;;;21.98;13.48;;;;;;;;;;5109678;28;20020;-66
2022/03/27 02:33:25;;;;;;;22.35;13.73;;;;;;;;;;5095622;28;20386;-66
2022/03/27 02:35:51;;;;;;;22.40;14.00;;;;;;;;;;5089153;28;20099;-67
2022/03/27 02:38:17;;;;;;;24.20;14.27;;;;;;;;;;5078820;28;20027;-66
2022/03/27 02:40:44;;;;;;;26.33;15.02;;;;;;;;;;5075899;28;20027;-67
2022/03/27 02:43:10;;;;;;;27.63;13.85;;;;;;;;;;5075690;28;20028;-68
2022/03/27 02:45:37;;;;;;;21.45;13.75;;;;;;;;;;5075465;28;20089;-67
2022/03/27 02:48:03;;;;;;;22.08;13.30;;;;;;;;;;5075456;28;20028;-67
2022/03/27 02:50:31;;;;;;;29.30;14.63;;;;;;;;;;5075920;28;20017;-66
2022/03/27 02:52:57;;;;;;;26.52;13.70;;;;;;;;;;5095830;28;20020;-67
2022/03/27 02:55:24;;;;;;;22.50;13.18;;;;;;;;;;5095707;28;20032;-67
2022/03/27 02:57:50;;;;;;;22.50;12.40;;;;;;;;;;5095586;28;20359;-67
2022/03/27 03:00:16;;;;;;;18.88;12.43;;;;;;;;;;5095618;28;20032;-67
2022/03/27 03:02:43;;;;;;;16.80;12.05;;;;;;;;;;5095557;28;20031;-66
2022/03/27 03:05:09;;;;;;;15.65;11.38;;;;;;;;;;5095396;28;20420;-66
2022/03/27 03:07:35;;;;;;;21.02;12.32;;;;;;;;;;5095712;28;20374;-66
2022/03/27 03:10:02;;;;;;;19.08;11.30;;;;;;;;;;5095639;28;20399;-66
2022/03/27 03:12:28;;;;;;;18.17;11.43;;;;;;;;;;5095781;28;20128;-66
2022/03/27 03:14:55;;;;;;;18.70;11.43;;;;;;;;;;5095445;28;20095;-65
2022/03/27 03:17:21;;;;;;;16.83;11.15;;;;;;;;;;5095321;28;20020;-66
2022/03/27 03:19:48;;;;;;;16.15;10.10;;;;;;;;;;5095069;28;20032;-68
2022/03/27 03:22:14;;;;;;;14.82;10.38;;;;;;;;;;5095155;28;20070;-67
2022/03/27 03:24:40;;;;;;;18.38;11.52;;;;;;;;;;5093907;28;20039;-67
2022/03/27 03:27:06;;;;;;;21.20;11.77;;;;;;;;;;5094749;28;20086;-68
2022/03/27 03:29:33;;;;;;;24.02;12.95;;;;;;;;;;5095051;28;20020;-64
2022/03/27 03:31:59;;;;;;;24.27;13.00;;;;;;;;;;5094968;28;20074;-69
2022/03/27 03:34:25;;;;;;;20.88;11.68;;;;;;;;;;5094690;28;20024;-67
2022/03/27 03:36:51;;;;;;;20.70;13.10;;;;;;;;;;5094930;28;20031;-69
2022/03/27 03:39:17;;;;;;;18.30;12.55;;;;;;;;;;5094908;28;20035;-67
2022/03/27 03:41:43;;;;;;;20.15;11.93;;;;;;;;;;5094806;28;20498;-67
2022/03/27 03:44:10;;;;;;;18.73;10.90;;;;;;;;;;5094690;28;20035;-69
2022/03/27 03:46:36;;;;;;;15.90;10.68;;;;;;;;;;5094598;28;20028;-68
2022/03/27 03:49:06;;;;;;;16.88;11.70;;;;;;;;;;5093503;28;20024;-67
2022/03/27 03:51:34;;;;;;;20.77;11.87;;;;;;;;;;5091367;28;20098;-67
2022/03/27 03:54:00;;;;;;;17.85;11.50;;;;;;;;;;5074573;28;20026;-69
2022/03/27 03:56:26;;;;;;;19.30;12.60;;;;;;;;;;5074201;28;20047;-66
2022/03/27 03:58:52;;;;;;;22.70;12.75;;;;;;;;;;5074125;28;20043;-67
2022/03/27 04:01:18;;;;;;;19.60;13.27;;;;;;;;;;5074236;28;20470;-67
2022/03/27 04:03:44;;;;;;;19.27;14.35;;;;;;;;;;5073946;28;20113;-66
2022/03/27 04:06:10;;;;;;;19.38;12.40;;;;;;;;;;5072497;28;20051;-67
2022/03/27 04:08:36;;;;;;;20.65;13.40;;;;;;;;;;5074244;28;20375;-66
2022/03/27 04:11:03;;;;;;;18.00;12.75;;;;;;;;;;5073930;28;20024;-66
2022/03/27 04:13:29;;;;;;;22.33;13.25;;;;;;;;;;5073906;28;20378;-68
2022/03/27 04:15:55;;;;;;;18.08;12.55;;;;;;;;;;5073863;28;20024;-67
2022/03/27 04:18:21;;;;;;;16.98;11.70;;;;;;;;;;5073743;28;20021;-69
2022/03/27 04:20:47;;;;;;;23.65;12.75;;;;;;;;;;5073666;28;20038;-69
2022/03/27 04:23:14;;;;;;;21.13;11.93;;;;;;;;;;5073690;28;20028;-67
2022/03/27 04:25:40;;;;;;;15.98;9.75;;;;;;;;;;5071909;28;20494;-65
2022/03/27 04:28:08;;;;;;;16.77;11.18;;;;;;;;;;5073584;28;20070;-67
2022/03/27 04:30:34;;;;;;;18.05;11.60;;;;;;;;;;5073759;28;20101;-69
2022/03/27 04:33:00;;;;;;;17.15;10.75;;;;;;;;;;5073554;28;20535;-66
2022/03/27 04:35:26;;;;;;;18.08;11.07;;;;;;;;;;5073283;28;20048;-68
2022/03/27 04:37:52;;;;;;;20.27;12.05;;;;;;;;;;5073603;28;20016;-67
2022/03/27 04:40:18;;;;;;;20.33;12.05;;;;;;;;;;5073446;28;20017;-70
2022/03/27 04:42:45;;;;;;;19.38;13.27;;;;;;;;;;5072190;28;20128;-73
2022/03/27 04:45:11;;;;;;;22.90;13.18;;;;;;;;;;5073398;28;20056;-72
2022/03/27 04:47:38;;;;;;;21.17;12.13;;;;;;;;;;5080096;28;20134;-67
2022/03/27 04:50:05;;;;;;;20.60;13.38;;;;;;;;;;5092279;28;20421;-65
2022/03/27 04:52:31;;;;;;;21.90;12.90;;;;;;;;;;5083265;28;20111;-66
2022/03/27 04:54:58;;;;;;;26.00;14.18;;;;;;;;;;5089307;28;20020;-70
2022/03/27 04:57:24;;;;;;;23.42;15.65;;;;;;;;;;5091520;28;20359;-68
2022/03/27 04:59:50;;;;;;;21.15;14.93;;;;;;;;;;5072982;28;20444;-67
2022/03/27 05:02:17;;;;;;;21.50;12.27;;;;;;;;;;5073066;28;20028;-67
2022/03/27 05:04:44;;;;;;;22.55;12.93;;;;;;;;;;5071408;28;20490;-66
2022/03/27 05:07:10;;;;;;;20.60;15.35;;;;;;;;;;5073068;28;20039;-67
2022/03/27 05:09:36;;;;;;;19.77;11.73;;;;;;;;;;5073014;28;20036;-67
2022/03/27 05:12:02;;;;;;;14.50;10.77;;;;;;;;;;5073035;28;20056;-67
2022/03/27 05:14:28;;;;;;;19.60;12.73;;;;;;;;;;5072942;28;20432;-66
2022/03/27 05:16:54;;;;;;;22.65;14.02;;;;;;;;;;5073005;28;20367;-66
2022/03/27 05:19:20;;;;;;;25.00;16.05;;;;;;;;;;5072958;28;20385;-66
2022/03/27 05:21:46;;;;;;;28.98;16.83;;;;;;;;;;5071674;28;20413;-66
2022/03/27 05:24:12;;;;;;;26.10;15.40;;;;;;;;;;5072846;28;20101;-67
2022/03/27 05:26:39;;;;;;;24.05;16.45;;;;;;;;;;5072745;28;20123;-72
2022/03/27 05:29:08;;;;;;;26.48;17.05;;;;;;;;;;5072946;28;20029;-66
2022/03/27 05:31:34;;;;;;;24.17;14.98;;;;;;;;;;5072951;28;20035;-67
2022/03/27 05:34:00;;;;;;;28.30;16.77;;;;;;;;;;5072716;28;20108;-66
2022/03/27 05:36:26;;;;;;;29.00;16.65;;;;;;;;;;5072630;28;20055;-65
2022/03/27 05:38:52;;;;;;;27.48;17.15;;;;;;;;;;5071356;28;20041;-66
2022/03/27 05:41:19;;;;;;;28.90;19.92;;;;;;;;;;5072741;28;20035;-67
2022/03/27 05:43:45;;;;;;;30.80;19.45;;;;;;;;;;5072744;28;20078;-65
2022/03/27 05:46:11;;;;;;;25.23;16.33;;;;;;;;;;5072687;28;20040;-66
2022/03/27 05:48:37;;;;;;;31.77;16.35;;;;;;;;;;5072535;28;20113;-66
2022/03/27 05:51:03;;;;;;;29.23;18.20;;;;;;;;;;5072351;28;20035;-64
2022/03/27 05:53:29;;;;;;;28.38;17.70;;;;;;;;;;5072619;28;20099;-66
2022/03/27 05:55:57;;;;;;;29.05;19.73;;;;;;;;;;5072365;28;20040;-65
2022/03/27 05:58:23;;;;;;;26.48;20.40;;;;;;;;;;5071530;28;20027;-65
2022/03/27 06:00:49;;;;;;;33.45;19.67;;;;;;;;;;5072540;28;20371;-68
2022/03/27 06:03:15;;;;;;;30.27;20.02;;;;;;;;;;5072600;28;20478;-67
2022/03/27 06:05:41;;;;;;;28.25;19.08;;;;;;;;;;5072249;28;20072;-66
2022/03/27 06:08:08;;;;;;;32.22;20.27;;;;;;;;;;5072332;28;20031;-66
2022/03/27 06:10:35;;;;;;;37.25;20.08;;;;;;;;;;5072606;28;20017;-66
2022/03/27 06:13:03;;;;;;;33.78;20.83;;;;;;;;;;5074038;28;20024;-67
2022/03/27 06:15:30;;;;;;;32.47;21.25;;;;;;;;;;5076245;28;20036;-68
2022/03/27 06:17:57;;;;;;;30.92;20.95;;;;;;;;;;5076050;28;20020;-66
2022/03/27 06:20:24;;;;;;;37.08;24.02;;;;;;;;;;5074756;28;20024;-67
2022/03/27 06:22:51;;;;;;;48.92;28.17;;;;;;;;;;5076172;28;20024;-68
2022/03/27 06:25:18;;;;;;;31.38;23.45;;;;;;;;;;5075555;28;20024;-67
2022/03/27 06:27:44;;;;;;;30.58;21.58;;;;;;;;;;5075960;28;20054;-66
2022/03/27 06:30:12;;;;;;;39.22;23.77;;;;;;;;;;5075875;28;20016;-67
2022/03/27 06:32:38;;;;;;;33.95;21.27;;;;;;;;;;5075832;28;20070;-69
2022/03/27 06:35:08;;;;;;;36.38;21.33;;;;;;;;;;5075460;28;20532;-67
2022/03/27 06:37:35;;;;;;;32.50;20.05;;;;;;;;;;5075654;28;20027;-66
2022/03/27 06:40:02;;;;;;;39.22;19.85;;;;;;;;;;5075880;28;20055;-67
2022/03/27 06:42:28;;;;;;;32.58;20.98;;;;;;;;;;5075552;28;20021;-66
2022/03/27 06:44:55;;;;;;;38.22;21.88;;;;;;;;;;5075688;28;20025;-66
2022/03/27 06:47:23;;;;;;;47.25;21.77;;;;;;;;;;5075465;28;20063;-70
2022/03/27 06:49:51;;;;;;;33.78;19.92;;;;;;;;;;5075378;28;20052;-67
2022/03/27 06:52:18;;;;;;;34.17;21.33;;;;;;;;;;5075687;28;20429;-67
2022/03/27 06:54:44;;;;;;;36.45;21.10;;;;;;;;;;5075675;28;20020;-67
2022/03/27 06:57:11;;;;;;;31.60;22.25;;;;;;;;;;5075262;28;20390;-68
2022/03/27 07:05:06;;;;;;;41.88;30.33;;;;;;;;;;5075377;28;20098;-66
2022/03/27 07:07:32;;;;;;;51.63;31.95;;;;;;;;;;5075138;28;20506;-66
2022/03/27 07:09:58;;;;;;;49.42;31.63;;;;;;;;;;5075179;28;20051;-66
2022/03/27 07:12:25;;;;;;;43.88;26.63;;;;;;;;;;5075041;28;20028;-66
2022/03/27 07:14:52;;;;;;;31.77;22.27;;;;;;;;;;5075023;28;20082;-66
2022/03/27 07:17:18;;;;;;;34.33;22.20;;;;;;;;;;5074861;28;20081;-66
2022/03/27 07:19:45;;;;;;;28.90;17.17;;;;;;;;;;5074985;28;20025;-65
2022/03/27 07:22:11;;;;;;;41.55;25.13;;;;;;;;;;5074994;28;20037;-65
2022/03/27 07:24:37;;;;;;;33.08;25.27;;;;;;;;;;5074875;28;20093;-64
2022/03/27 07:27:03;;;;;;;27.92;20.00;;;;;;;;;;5074301;28;20508;-66
2022/03/27 07:29:34;;;;;;;22.42;15.90;;;;;;;;;;5074995;28;20025;-66
2022/03/27 07:32:01;;;;;;;24.23;16.20;;;;;;;;;;5073480;28;20245;-66
2022/03/27 07:34:27;;;;;;;20.63;14.70;;;;;;;;;;5073853;28;20032;-65
2022/03/27 07:36:53;;;;;;;26.15;16.33;;;;;;;;;;5074685;28;20021;-66
2022/03/27 07:39:19;;;;;;;27.00;17.00;;;;;;;;;;5074361;28;20066;-66
2022/03/27 07:41:45;;;;;;;25.73;16.85;;;;;;;;;;5074460;28;20070;-65
2022/03/27 07:44:11;;;;;;;25.65;16.33;;;;;;;;;;5073982;28;20025;-64
2022/03/27 07:46:38;;;;;;;27.15;17.90;;;;;;;;;;5073846;28;20063;-65
2022/03/27 07:49:04;;;;;;;29.92;18.83;;;;;;;;;;5072855;28;20016;-69
2022/03/27 07:51:29;;;;;;;25.38;18.15;;;486.80;1024.00;;;;;;5079940;28;20033;-64
2022/03/27 07:53:55;;;;;;;41.13;28.35;;;486.90;1024.00;;;;;;5085974;28;20016;-63
2022/03/27 07:56:21;;;;;;;62.28;40.25;;;;;;;;;;5093769;28;20046;-62
2022/03/27 07:58:48;;;;;;;37.50;21.77;;;;;;;;;;5081893;28;20073;-62
2022/03/27 08:01:15;;;;;;;26.42;17.80;;;512.10;921.60;;;;;;5072751;28;20017;-67
2022/03/27 08:03:41;;;;;;;29.23;17.13;;;;;;;;;;5073063;28;20489;-65
2022/03/27 08:06:08;;;;;;;25.35;17.08;;;512.40;921.60;;;;;;5072919;28;20036;-63
2022/03/27 08:08:34;;;;;;;22.80;17.27;;;;;;;;;;5073031;28;20023;-62
2022/03/27 08:11:00;;;;;;;24.42;16.50;;;;;;;;;;5073329;28;20035;-63
2022/03/27 08:13:26;;;;;;;27.90;18.17;;;;;;;;;;5073319;28;20112;-63
2022/03/27 08:15:53;;;;;;;28.90;18.77;;;;;;;;;;5073153;28;20020;-63
2022/03/27 08:18:19;;;;;;;28.15;18.15;;;;;;;;;;5073282;28;20021;-64
2022/03/27 08:20:45;;;;;;;25.60;15.40;;;537.80;896.00;;;;;;5072726;28;20032;-65
2022/03/27 08:23:10;;;;;;;33.85;20.92;;;537.80;870.40;;;;;;5073725;28;20016;-66
2022/03/27 08:28:22;;;;;;;30.83;16.05;;;538.50;896.00;;;;;;5072411;28;20130;-69
2022/03/27 08:30:48;;;;;;;52.50;25.73;;;538.50;896.00;;;;;;5072956;28;20108;-68
2022/03/27 08:33:15;;;;;;;39.50;26.02;;;563.20;921.60;;;;;;5071268;28;20119;-66
2022/03/27 08:35:42;;;;;;;32.35;16.88;;;;;;;;;;5072263;28;20478;-66
2022/03/27 08:38:11;;;;;;;29.33;18.45;;;;;;;;;;5072663;28;20020;-69
2022/03/27 08:40:38;;;;;;;25.85;16.02;;;;;;;;;;5072692;28;20035;-69
2022/03/27 08:43:08;;;;;;;22.60;15.43;;;;;;;;;;5072807;28;20103;-65
2022/03/27 08:45:34;;;;;;;33.28;20.58;;;;;;;;;;5072557;28;20107;-64
2022/03/27 08:48:00;;;;;;;34.60;17.58;;;;;;;;;;5073062;28;20029;-66
2022/03/27 08:50:32;;;;;;;23.05;14.27;;;;;;;;;;5072397;28;20378;-67
2022/03/27 08:52:59;;;;;;;;;;;564.10;844.80;;;;;;5087313;28;20381;-68
2022/03/27 08:55:24;;;;;;;30.42;16.83;;;564.10;844.80;;;;;;5092488;28;19922;-64
2022/03/27 08:57:57;;;;;;;27.75;17.08;;;588.90;870.40;;;;;;5093123;28;20106;-70
2022/03/27 09:00:31;;;;;;;48.88;30.33;;;589.20;844.80;;;;;;5085130;28;20031;-68
2022/03/27 09:02:59;;;;;;;33.47;20.10;;;589.30;844.80;;;;;;5078025;28;20051;-74
2022/03/27 09:05:25;;;;;;;32.88;21.55;;;614.40;819.20;;;;;;5082354;28;20043;-68
2022/03/27 09:07:53;;;;;;;35.85;22.55;;;;;;;;;;5086116;28;20020;-73
2022/03/27 09:10:19;;;;;;;35.00;19.67;;;;;;;;;;5079162;28;20478;-75
2022/03/27 09:12:46;;;;;;;29.33;18.52;;;;;;;;;;5075149;28;20562;-69
2022/03/27 09:15:12;;;;;;;120.68;30.08;;;;;;;;;;5075051;28;20043;-65
2022/03/27 09:17:59;;;;;;;41.97;25.35;;;;;;;;;;5072282;28;20110;-65
2022/03/27 09:20:32;;;;;;;33.95;18.70;;;615.20;768.00;;;;;;5070813;28;20398;-66
2022/03/27 09:23:19;;;;;;;30.70;21.30;;;;;;;;;;5073997;28;20462;-69
2022/03/27 09:26:05;;;;;;;26.15;21.92;;;;;;;;;;5071750;28;20097;-75
2022/03/27 09:28:33;;;;;;;38.67;22.55;;;;;;;;;;5074731;28;20028;-71
2022/03/27 09:31:23;;;;;;;30.98;19.52;;;;;;;;;;5071954;28;20477;-66
2022/03/27 09:33:53;;;;;;;33.78;23.95;;;640.70;716.80;;;;;;5029569;28;20029;-66
2022/03/27 09:36:40;;;;;;;30.58;20.80;;;640.80;742.40;;;;;;5029557;28;20029;-66
2022/03/27 09:39:16;;;;;;;36.67;18.67;;;;;;;;;;5029521;28;20029;-67
2022/03/27 09:41:46;;;;;;;36.92;25.35;;;;;;;;;;5030005;28;20057;-66
2022/03/27 09:44:17;;;;;;;47.38;28.00;;;;;;;;;;5030014;28;20087;-67
2022/03/27 09:46:48;;;;;;;53.83;39.28;;;;;;;;;;5030068;28;20152;-71
2022/03/27 09:49:18;;;;;;;55.35;40.15;;;;;;;;;;5034141;28;20030;-69
2022/03/27 09:52:14;;;;;;;51.17;37.17;;;;;;;;;;5053646;28;20029;-67
2022/03/27 09:54:56;;;;;;;130.07;93.03;;;;;;;;;;4973739;28;20063;-68
2022/03/27 09:57:22;;;;;;;42.90;32.53;;;;;;;;;;4971948;28;20049;-69
2022/03/27 09:59:48;;;;;;;32.67;24.77;;;;;;;;;;4972814;28;20050;-68
2022/03/27 10:02:30;;;;;;;57.13;45.58;;;973.60;486.40;;;;;;4974382;28;20035;-72
2022/03/27 10:05:00;;;;;;;101.90;79.97;;;;;;;;;;4974663;28;20481;-66
2022/03/27 10:07:32;;;;;;;49.53;38.65;;;998.90;486.40;;;;;;4973900;28;20416;-68
2022/03/27 10:09:58;;;;;;;91.18;71.82;;;;;;;;;;4980769;28;20033;-70
2022/03/27 10:12:29;;;;;;;39.95;28.25;;;1024.30;460.80;;;;;;5013145;28;20392;-66
2022/03/27 10:15:01;;;;;;;36.50;28.33;;;;;;;;;;5029385;28;20426;-71
2022/03/27 10:17:28;;;;;;;45.67;35.38;;;1024.70;460.80;;;;;;5032922;28;20030;-71
2022/03/27 10:19:54;;;;;;;37.97;25.35;;;;;;;;;;5031581;28;20065;-65
2022/03/27 10:22:21;;;;;;;32.20;26.40;;;;;;;;;;5023754;28;20143;-65
2022/03/27 10:24:51;;;;;;;39.17;31.25;;;;;;;;;;5033090;28;20033;-66
2022/03/27 10:27:18;;;;;;;62.20;54.35;;;;;;;;;;5032588;28;20389;-67
2022/03/27 10:29:45;;;;;;;29.80;25.10;;;1050.50;435.20;;;;;;5022796;28;20045;-75
2022/03/27 10:32:12;;;;;;;33.88;24.70;;;1075.20;460.80;;;;;;5073635;28;20367;-68
2022/03/27 10:34:50;;;;;;;30.65;23.90;;;1075.20;435.20;;;;;;5074449;28;20033;-65
2022/03/27 10:37:22;;;;;;;33.38;22.85;;;;;;;;;;5075581;28;20017;-69
2022/03/27 10:40:01;;;;;;;25.13;17.92;;;;;;;;;;5074900;28;20036;-66
2022/03/27 10:42:54;;;;;;;26.02;23.23;;;1101.10;409.60;;;;;;5078061;28;20025;-70
2022/03/27 10:45:21;;;;;;;38.80;31.30;;;1075.80;409.60;;;;;;5074678;28;20032;-69
2022/03/27 10:48:19;;;;;;;33.25;27.52;;;1075.70;460.80;;;;;;5081672;28;20040;-75
2022/03/27 10:50:47;;;;;;;32.17;21.58;;;1101.20;435.20;;;;;;5012749;28;20042;-66
2022/03/27 10:53:14;;;;;;;34.25;24.48;;;;;;;;;;5010209;28;20506;-78
2022/03/27 10:55:45;;;;;;;28.23;21.30;;;1075.70;460.80;;;;;;5010492;28;20044;-68
2022/03/27 10:58:34;;;;;;;31.63;20.65;;;1101.20;435.20;;;;;;5005929;28;20048;-68
2022/03/27 11:01:03;;;;;;;19.75;17.13;;;1100.80;435.20;;;;;;4992174;28;20041;-67
2022/03/27 11:03:51;;;;;;;45.28;40.47;;;1101.10;435.20;;;;;;5012350;28;20026;-67
2022/03/27 11:06:20;;;;;;;19.13;15.70;;;1101.30;409.60;;;;;;5011686;28;20076;-67
2022/03/27 11:08:46;;;;;;;62.80;55.97;;;1101.10;435.20;;;;;;5011109;28;20045;-66
2022/03/27 11:11:38;;;;;;;26.10;20.48;;;1101.20;435.20;;;;;;5012228;28;20081;-76
2022/03/27 11:14:06;;;;;;;42.20;35.13;;;1100.90;460.80;;;;;;5012421;28;20113;-66
2022/03/27 11:16:37;;;;;;;43.70;30.02;;;1100.90;460.80;;;;;;5012438;28;20545;-75
2022/03/27 11:19:04;;;;;;;26.55;22.98;;;1101.40;435.20;;;;;;5012286;28;20064;-76
2022/03/27 11:21:29;;;;;;;47.70;38.83;;;1101.40;435.20;;;;;;5011945;28;20510;-77
2022/03/27 11:24:18;;;;;;;36.33;31.30;;;1101.10;460.80;;;;;;5012677;28;20061;-70
2022/03/27 11:26:44;;;;;;;36.63;25.42;;;1075.90;435.20;;;;;;5040967;28;20052;-68
2022/03/27 11:29:25;;;;;;;29.33;24.05;;;;;;;;;;5094370;28;20099;-68
2022/03/27 11:32:08;;;;;;;51.08;36.72;;;;;;;;;;5075807;28;20455;-66
2022/03/27 11:34:38;;;;;;;30.15;22.15;;;1050.20;435.20;;;;;;5075434;28;20035;-69
2022/03/27 11:37:25;;;;;;;73.43;42.90;;;;;;;;;;5078870;28;20023;-67
2022/03/27 11:39:53;;;;;;;30.00;22.40;;;1024.50;486.40;;;;;;5092735;28;20020;-64
2022/03/27 11:42:23;;;;;;;39.67;21.33;;;;;;;;;;5075076;28;20043;-63
2022/03/27 11:45:07;;;;;;;36.75;27.23;;;998.80;512.00;;;;;;5073884;28;20048;-63
2022/03/27 11:47:35;;;;;;;43.88;34.85;;;;;;;;;;5073232;28;20136;-62
2022/03/27 11:50:02;;;;;;;30.02;19.92;;;;;;;;;;5073271;28;20052;-63
2022/03/27 11:52:28;;;;;;;29.90;24.13;;;;;;;;;;5074660;28;20400;-66
2022/03/27 11:55:09;;;;;;;68.82;50.53;;;947.20;512.00;;;;;;5073280;28;20087;-63
2022/03/27 11:57:44;;;;;;;131.45;108.38;;;;;;;;;;5073098;28;20032;-66
2022/03/27 12:00:12;;;;;;;34.10;21.13;;;;;;;;;;5073350;28;20020;-66
2022/03/27 12:02:45;;;;;;;79.03;50.08;;;;;;;;;;5073616;28;20021;-68
2022/03/27 12:05:14;;;;;;;49.47;38.47;;;;;;;;;;5073031;28;20029;-70
2022/03/27 12:07:57;;;;;;;32.40;20.23;;;;;;;;;;5072620;28;20470;-62
2022/03/27 12:10:24;;;;;;;34.03;18.67;;;870.90;588.80;;;;;;5071812;28;20414;-64
2022/03/27 12:13:05;;;;;;;34.65;22.30;;;870.80;588.80;;;;;;5090001;28;20130;-66
2022/03/27 12:15:30;;;;;;;;;;;;;;;;;;5078565;28;20036;-65
2022/03/27 12:17:57;;;;;;;35.05;23.55;;;;;;;;;;5072829;28;19904;-69
2022/03/27 12:20:23;;;;;;;51.78;18.02;;;845.70;614.40;;;;;;5075594;28;20038;-66
2022/03/27 12:22:51;;;;;;;30.60;17.83;;;845.30;665.60;;;;;;5073698;28;20202;-65
2022/03/27 12:25:28;;;;;;;32.45;23.00;;;;;;;;;;5072893;28;20028;-64
2022/03/27 12:30:49;;;;;;;49.95;35.40;;;;;;;;;;5073427;28;20085;-67
2022/03/27 12:33:19;;;;;;;50.38;36.15;;;;;;;;;;5072998;28;20107;-67
2022/03/27 12:35:50;;;;;;;35.63;20.50;;;;;;;;;;5073104;28;20050;-67
2022/03/27 12:38:31;;;;;;;46.72;30.45;;;;;;;;;;5072809;28;20041;-62
2022/03/27 12:40:57;;;;;;;31.00;15.18;;;819.30;640.00;;;;;;5073552;28;20539;-70
2022/03/27 12:43:23;;;;;;;22.42;15.80;;;;;;;;;;5073260;28;20111;-69
2022/03/27 12:45:50;;;;;;;20.52;13.77;;;;;;;;;;5075584;28;20375;-71
2022/03/27 12:48:20;;;;;;;25.80;17.60;;;794.10;665.60;;;;;;5078790;28;20620;-72
2022/03/27 12:50:50;;;;;;;29.33;20.03;;;;;;;;;;5081718;28;20020;-73
2022/03/27 12:53:16;;;;;;;;;;;;;;;;;;5088769;28;20032;-63
2022/03/27 12:55:47;;;;;;;70.65;47.85;;;;;;;;;;5079061;28;19975;-62
2022/03/27 12:58:15;;;;;;;78.15;52.03;;;768.70;665.60;;;;;;5070906;28;20027;-72
2022/03/27 13:00:41;;;;;;;47.80;32.22;;;;;;;;;;5072102;28;20025;-66
2022/03/27 13:03:18;;;;;;;43.30;26.90;;;;;;;;;;5071961;28;20020;-63
2022/03/27 13:06:04;;;;;;;43.63;27.33;;;;;;;;;;5071770;28;20012;-64
2022/03/27 13:08:39;;;;;;;36.50;20.42;;;742.70;716.80;;;;;;5071746;28;20036;-68
2022/03/27 13:11:12;;;;;;;41.60;23.63;;;;;;;;;;5072630;28;20025;-66
2022/03/27 13:13:43;;;;;;;29.95;15.88;;;;;;;;;;5073046;28;20035;-59
2022/03/27 13:16:21;;;;;;;31.63;23.88;;;716.80;768.00;;;;;;5071870;28;20023;-66
2022/03/27 13:19:05;;;;;;;22.20;13.02;;;;;;;;;;5072177;28;20035;-66
2022/03/27 13:21:43;;;;;;;23.13;13.90;;;691.70;768.00;;;;;;5073270;28;20417;-62
2022/03/27 13:24:11;;;;;;;29.42;15.32;;;691.40;768.00;;;;;;5071579;28;20017;-62
2022/03/27 13:26:37;;;;;;;19.20;12.40;;;;;;;;;;5071915;28;20051;-62
2022/03/27 13:29:05;;;;;;;22.42;12.93;;;691.20;793.60;;;;;;5071400;28;20032;-67
2022/03/27 13:31:31;;;;;;;20.85;11.95;;;666.50;819.20;;;;;;5072456;28;20028;-62
2022/03/27 13:33:57;;;;;;;30.17;13.68;;;;;;;;;;5072313;28;20474;-62
2022/03/27 13:36:24;;;;;;;22.13;12.18;;;;;;;;;;5072794;28;20028;-61
2022/03/27 13:38:50;;;;;;;21.27;12.93;;;;;;;;;;5072211;28;20474;-61
2022/03/27 13:44:01;;;;;;;24.10;12.15;;;665.60;844.80;;;;;;5072623;28;20031;-63
2022/03/27 13:46:27;;;;;;;22.85;12.30;;;;;;;;;;5071841;28;20028;-62
2022/03/27 13:48:52;;;;;;;19.92;13.15;;;640.70;844.80;;;;;;5072058;28;20531;-62
2022/03/27 13:51:18;;;;;;;18.17;11.10;;;640.60;844.80;;;;;;5072268;28;20044;-61
2022/03/27 13:53:45;;;;;;;19.50;11.57;;;;;;;;;;5091368;28;20028;-62
2022/03/27 13:56:11;;;;;;;27.45;11.57;;;;;;;;;;5092039;28;20052;-60
2022/03/27 13:58:39;;;;;;;18.95;11.65;;;;;;;;;;5092155;28;20024;-60
2022/03/27 14:01:05;;;;;;;25.48;12.52;;;;;;;;;;5092183;28;20027;-61
2022/03/27 14:03:31;;;;;;;21.45;11.93;;;;;;;;;;5092119;28;20035;-67
2022/03/27 14:05:57;;;;;;;17.42;12.40;;;;;;;;;;5092393;28;20043;-61
2022/03/27 14:08:24;;;;;;;17.88;10.60;;;;;;;;;;5092610;28;20138;-63